sensor_id;sensor_type;location;lat;lon;timestamp;pressure;altitude;pressure_sealevel;temperature;humidity
33153;BME280;19509;43.862;26.176;2023-04-22T00:00:12;100494.50;;;10.93;87.21
33153;BME280;19509;43.862;26.176;2023-04-22T00:02:38;100492.22;;;10.89;86.33
33153;BME280;19509;43.862;26.176;2023-04-22T00:05:04;100502.22;;;10.82;87.17
33153;BME280;19509;43.862;26.176;2023-04-22T00:07:31;100503.09;;;10.70;87.72
33153;BME280;19509;43.862;26.176;2023-04-22T00:09:56;100512.00;;;10.70;87.86
33153;BME280;19509;43.862;26.176;2023-04-22T00:12:24;100498.34;;;10.65;87.59
33153;BME280;19509;43.862;26.176;2023-04-22T00:14:50;100502.13;;;10.57;87.87
33153;BME280;19509;43.862;26.176;2023-04-22T00:17:16;100496.09;;;10.62;87.58
33153;BME280;19509;43.862;26.176;2023-04-22T00:19:41;100503.97;;;10.63;87.41
33153;BME280;19509;43.862;26.176;2023-04-22T00:22:08;100500.03;;;10.53;87.85
33153;BME280;19509;43.862;26.176;2023-04-22T00:24:33;100501.94;;;10.46;88.40
33153;BME280;19509;43.862;26.176;2023-04-22T00:26:59;100500.69;;;10.48;88.53
33153;BME280;19509;43.862;26.176;2023-04-22T00:29:25;100507.13;;;10.47;88.69
33153;BME280;19509;43.862;26.176;2023-04-22T00:31:51;100489.13;;;10.41;88.93
33153;BME280;19509;43.862;26.176;2023-04-22T00:34:16;100501.75;;;10.40;89.22
33153;BME280;19509;43.862;26.176;2023-04-22T00:36:42;100505.09;;;10.09;90.84
33153;BME280;19509;43.862;26.176;2023-04-22T00:39:08;100505.28;;;10.14;90.26
33153;BME280;19509;43.862;26.176;2023-04-22T00:41:34;100508.38;;;10.18;90.37
33153;BME280;19509;43.862;26.176;2023-04-22T00:44:00;100496.38;;;10.21;90.36
33153;BME280;19509;43.862;26.176;2023-04-22T00:46:26;100506.50;;;10.25;90.18
33153;BME280;19509;43.862;26.176;2023-04-22T00:48:51;100497.00;;;10.23;90.05
33153;BME280;19509;43.862;26.176;2023-04-22T00:51:17;100504.66;;;10.26;89.51
33153;BME280;19509;43.862;26.176;2023-04-22T00:53:42;100495.97;;;10.24;89.62
33153;BME280;19509;43.862;26.176;2023-04-22T00:56:10;100504.25;;;10.29;89.35
33153;BME280;19509;43.862;26.176;2023-04-22T00:58:35;100499.28;;;10.26;89.33
33153;BME280;19509;43.862;26.176;2023-04-22T01:01:01;100497.63;;;10.25;89.44
33153;BME280;19509;43.862;26.176;2023-04-22T01:03:27;100506.91;;;10.22;89.68
33153;BME280;19509;43.862;26.176;2023-04-22T01:05:54;100501.34;;;10.24;89.68
33153;BME280;19509;43.862;26.176;2023-04-22T01:08:20;100501.53;;;10.22;89.96
33153;BME280;19509;43.862;26.176;2023-04-22T01:10:46;100507.16;;;10.21;90.12
33153;BME280;19509;43.862;26.176;2023-04-22T01:13:11;100506.31;;;10.20;90.10
33153;BME280;19509;43.862;26.176;2023-04-22T01:15:37;100507.34;;;10.26;89.72
33153;BME280;19509;43.862;26.176;2023-04-22T01:18:03;100511.06;;;10.18;90.05
33153;BME280;19509;43.862;26.176;2023-04-22T01:20:29;100504.69;;;10.12;89.99
33153;BME280;19509;43.862;26.176;2023-04-22T01:22:55;100502.00;;;10.06;90.46
33153;BME280;19509;43.862;26.176;2023-04-22T01:25:24;100502.19;;;10.04;90.49
33153;BME280;19509;43.862;26.176;2023-04-22T01:27:50;100493.09;;;10.05;90.10
33153;BME280;19509;43.862;26.176;2023-04-22T01:30:17;100500.53;;;10.16;89.62
33153;BME280;19509;43.862;26.176;2023-04-22T01:32:42;100491.47;;;9.91;90.15
33153;BME280;19509;43.862;26.176;2023-04-22T01:35:09;100490.84;;;9.95;91.02
33153;BME280;19509;43.862;26.176;2023-04-22T01:37:35;100486.91;;;9.98;90.10
33153;BME280;19509;43.862;26.176;2023-04-22T01:40:01;100491.66;;;9.96;90.52
33153;BME280;19509;43.862;26.176;2023-04-22T01:42:27;100494.56;;;9.94;90.35
33153;BME280;19509;43.862;26.176;2023-04-22T01:44:53;100494.38;;;9.83;90.95
33153;BME280;19509;43.862;26.176;2023-04-22T01:47:18;100500.16;;;9.86;90.65
33153;BME280;19509;43.862;26.176;2023-04-22T01:49:44;100498.69;;;9.77;91.03
33153;BME280;19509;43.862;26.176;2023-04-22T01:52:09;100500.16;;;9.73;91.54
33153;BME280;19509;43.862;26.176;2023-04-22T01:54:35;100495.41;;;9.68;92.03
33153;BME280;19509;43.862;26.176;2023-04-22T01:57:08;100492.91;;;9.67;92.09
33153;BME280;19509;43.862;26.176;2023-04-22T01:59:35;100492.50;;;9.63;92.02
33153;BME280;19509;43.862;26.176;2023-04-22T02:02:00;100488.16;;;9.62;92.11
33153;BME280;19509;43.862;26.176;2023-04-22T02:04:26;100484.84;;;9.60;91.79
33153;BME280;19509;43.862;26.176;2023-04-22T02:06:51;100490.22;;;9.67;91.42
33153;BME280;19509;43.862;26.176;2023-04-22T02:09:17;100492.50;;;9.57;91.40
33153;BME280;19509;43.862;26.176;2023-04-22T02:11:42;100487.09;;;9.43;90.78
33153;BME280;19509;43.862;26.176;2023-04-22T02:14:08;100488.16;;;9.36;91.62
33153;BME280;19509;43.862;26.176;2023-04-22T02:16:33;100478.22;;;9.30;92.18
33153;BME280;19509;43.862;26.176;2023-04-22T02:18:59;100479.03;;;9.37;92.35
33153;BME280;19509;43.862;26.176;2023-04-22T02:21:27;100483.00;;;9.41;92.62
33153;BME280;19509;43.862;26.176;2023-04-22T02:23:53;100479.88;;;9.51;91.99
33153;BME280;19509;43.862;26.176;2023-04-22T02:26:19;100475.56;;;9.56;91.37
33153;BME280;19509;43.862;26.176;2023-04-22T02:28:45;100476.59;;;9.48;91.97
33153;BME280;19509;43.862;26.176;2023-04-22T02:31:10;100477.59;;;9.47;91.73
33153;BME280;19509;43.862;26.176;2023-04-22T02:33:36;100473.09;;;9.55;91.55
33153;BME280;19509;43.862;26.176;2023-04-22T02:36:02;100473.91;;;9.48;92.15
33153;BME280;19509;43.862;26.176;2023-04-22T02:38:27;100475.13;;;9.39;92.65
33153;BME280;19509;43.862;26.176;2023-04-22T02:40:53;100474.72;;;9.42;92.46
33153;BME280;19509;43.862;26.176;2023-04-22T02:43:18;100476.38;;;9.50;92.38
33153;BME280;19509;43.862;26.176;2023-04-22T02:45:44;100484.44;;;9.57;91.78
33153;BME280;19509;43.862;26.176;2023-04-22T02:48:09;100479.06;;;9.50;92.20
33153;BME280;19509;43.862;26.176;2023-04-22T02:50:35;100484.03;;;9.46;91.78
33153;BME280;19509;43.862;26.176;2023-04-22T02:53:01;100484.84;;;9.40;92.48
33153;BME280;19509;43.862;26.176;2023-04-22T02:55:26;100491.66;;;9.43;92.71
33153;BME280;19509;43.862;26.176;2023-04-22T02:57:52;100493.53;;;9.49;92.58
33153;BME280;19509;43.862;26.176;2023-04-22T03:00:18;100494.34;;;9.50;92.58
33153;BME280;19509;43.862;26.176;2023-04-22T03:02:43;100492.72;;;9.48;92.74
33153;BME280;19509;43.862;26.176;2023-04-22T03:05:09;100491.47;;;9.51;92.71
33153;BME280;19509;43.862;26.176;2023-04-22T03:07:35;100485.47;;;9.49;92.30
33153;BME280;19509;43.862;26.176;2023-04-22T03:10:00;100487.13;;;9.57;91.63
33153;BME280;19509;43.862;26.176;2023-04-22T03:12:26;100486.50;;;9.48;92.02
33153;BME280;19509;43.862;26.176;2023-04-22T03:14:51;100489.41;;;9.60;91.37
33153;BME280;19509;43.862;26.176;2023-04-22T03:17:17;100490.63;;;9.44;90.85
33153;BME280;19509;43.862;26.176;2023-04-22T03:19:45;100498.91;;;9.42;90.72
33153;BME280;19509;43.862;26.176;2023-04-22T03:22:11;100500.72;;;9.22;90.59
33153;BME280;19509;43.862;26.176;2023-04-22T03:24:37;100507.31;;;9.13;92.10
33153;BME280;19509;43.862;26.176;2023-04-22T03:27:02;100490.34;;;9.06;92.56
33153;BME280;19509;43.862;26.176;2023-04-22T03:29:28;100499.03;;;9.08;92.22
33153;BME280;19509;43.862;26.176;2023-04-22T03:31:53;100503.59;;;9.14;92.43
33153;BME280;19509;43.862;26.176;2023-04-22T03:34:19;100498.84;;;9.22;91.66
33153;BME280;19509;43.862;26.176;2023-04-22T03:36:45;100511.47;;;9.22;91.74
33153;BME280;19509;43.862;26.176;2023-04-22T03:39:10;100515.56;;;9.11;91.83
33153;BME280;19509;43.862;26.176;2023-04-22T03:41:36;100521.09;;;9.03;91.45
33153;BME280;19509;43.862;26.176;2023-04-22T03:44:01;100525.28;;;9.19;90.28
33153;BME280;19509;43.862;26.176;2023-04-22T03:46:27;100524.03;;;9.15;90.45
33153;BME280;19509;43.862;26.176;2023-04-22T03:48:52;100528.16;;;9.11;91.00
33153;BME280;19509;43.862;26.176;2023-04-22T03:51:18;100530.03;;;9.17;91.09
33153;BME280;19509;43.862;26.176;2023-04-22T03:53:44;100541.25;;;9.54;89.96
33153;BME280;19509;43.862;26.176;2023-04-22T03:56:09;100534.88;;;9.55;88.37
33153;BME280;19509;43.862;26.176;2023-04-22T03:58:35;100542.94;;;9.61;87.44
33153;BME280;19509;43.862;26.176;2023-04-22T04:01:01;100533.59;;;9.51;87.95
33153;BME280;19509;43.862;26.176;2023-04-22T04:03:26;100543.56;;;9.77;87.84
33153;BME280;19509;43.862;26.176;2023-04-22T04:05:53;100547.72;;;9.99;86.87
33153;BME280;19509;43.862;26.176;2023-04-22T04:08:18;100547.06;;;10.50;84.58
33153;BME280;19509;43.862;26.176;2023-04-22T04:10:44;100561.78;;;10.99;82.41
33153;BME280;19509;43.862;26.176;2023-04-22T04:13:10;100558.00;;;11.13;80.80
33153;BME280;19509;43.862;26.176;2023-04-22T04:15:35;100563.84;;;11.04;81.80
33153;BME280;19509;43.862;26.176;2023-04-22T04:18:01;100562.66;;;10.86;81.82
33153;BME280;19509;43.862;26.176;2023-04-22T04:20:29;100568.31;;;10.72;82.47
33153;BME280;19509;43.862;26.176;2023-04-22T04:22:55;100576.88;;;10.35;84.11
33153;BME280;19509;43.862;26.176;2023-04-22T04:25:21;100574.81;;;10.37;85.33
33153;BME280;19509;43.862;26.176;2023-04-22T04:27:47;100582.06;;;10.37;85.86
33153;BME280;19509;43.862;26.176;2023-04-22T04:30:12;100586.78;;;10.02;85.25
33153;BME280;19509;43.862;26.176;2023-04-22T04:32:39;100591.97;;;10.16;85.08
33153;BME280;19509;43.862;26.176;2023-04-22T04:35:05;100597.75;;;10.20;84.58
33153;BME280;19509;43.862;26.176;2023-04-22T04:37:30;100594.84;;;10.48;84.25
33153;BME280;19509;43.862;26.176;2023-04-22T04:39:56;100599.78;;;10.71;84.25
33153;BME280;19509;43.862;26.176;2023-04-22T04:42:23;100597.81;;;11.05;83.77
33153;BME280;19509;43.862;26.176;2023-04-22T04:44:50;100602.16;;;11.51;82.44
33153;BME280;19509;43.862;26.176;2023-04-22T04:47:16;100609.03;;;12.35;79.06
33153;BME280;19509;43.862;26.176;2023-04-22T04:49:41;100615.75;;;12.69;77.54
33153;BME280;19509;43.862;26.176;2023-04-22T04:52:07;100620.88;;;12.96;75.93
33153;BME280;19509;43.862;26.176;2023-04-22T04:54:36;100614.88;;;13.49;74.95
33153;BME280;19509;43.862;26.176;2023-04-22T04:57:01;100617.06;;;14.48;70.87
33153;BME280;19509;43.862;26.176;2023-04-22T04:59:27;100618.75;;;15.24;67.58
33153;BME280;19509;43.862;26.176;2023-04-22T05:01:53;100620.81;;;14.94;67.40
33153;BME280;19509;43.862;26.176;2023-04-22T05:04:18;100627.09;;;14.59;68.48
33153;BME280;19509;43.862;26.176;2023-04-22T05:06:44;100624.84;;;14.44;69.25
33153;BME280;19509;43.862;26.176;2023-04-22T05:09:10;100622.50;;;14.48;69.17
33153;BME280;19509;43.862;26.176;2023-04-22T05:11:35;100630.81;;;14.23;70.98
33153;BME280;19509;43.862;26.176;2023-04-22T05:14:01;100635.63;;;14.09;72.41
33153;BME280;19509;43.862;26.176;2023-04-22T05:16:27;100635.34;;;13.87;72.45
33153;BME280;19509;43.862;26.176;2023-04-22T05:18:53;100629.59;;;13.65;73.98
33153;BME280;19509;43.862;26.176;2023-04-22T05:21:18;100643.09;;;13.53;74.74
33153;BME280;19509;43.862;26.176;2023-04-22T05:23:44;100641.66;;;13.51;74.14
33153;BME280;19509;43.862;26.176;2023-04-22T05:26:12;100640.31;;;13.41;75.11
33153;BME280;19509;43.862;26.176;2023-04-22T05:28:37;100661.06;;;13.29;74.23
33153;BME280;19509;43.862;26.176;2023-04-22T05:31:03;100655.88;;;12.91;76.45
33153;BME280;19509;43.862;26.176;2023-04-22T05:33:28;100647.63;;;12.36;77.45
33153;BME280;19509;43.862;26.176;2023-04-22T05:35:54;100654.59;;;12.50;78.03
33153;BME280;19509;43.862;26.176;2023-04-22T05:38:20;100650.72;;;12.64;78.82
33153;BME280;19509;43.862;26.176;2023-04-22T05:40:45;100649.97;;;12.57;77.73
33153;BME280;19509;43.862;26.176;2023-04-22T05:43:11;100647.09;;;12.52;78.91
33153;BME280;19509;43.862;26.176;2023-04-22T05:45:36;100656.78;;;12.35;80.55
33153;BME280;19509;43.862;26.176;2023-04-22T05:48:02;100658.00;;;12.39;77.89
33153;BME280;19509;43.862;26.176;2023-04-22T05:50:28;100669.00;;;12.12;80.78
33153;BME280;19509;43.862;26.176;2023-04-22T05:52:53;100666.91;;;12.14;79.67
33153;BME280;19509;43.862;26.176;2023-04-22T05:55:18;100668.25;;;11.98;79.81
33153;BME280;19509;43.862;26.176;2023-04-22T05:57:44;100681.84;;;11.72;79.61
33153;BME280;19509;43.862;26.176;2023-04-22T06:00:10;100680.69;;;11.54;78.52
33153;BME280;19509;43.862;26.176;2023-04-22T06:02:36;100677.03;;;11.42;79.47
33153;BME280;19509;43.862;26.176;2023-04-22T06:05:01;100685.75;;;11.37;79.64
33153;BME280;19509;43.862;26.176;2023-04-22T06:07:27;100693.16;;;11.55;80.60
33153;BME280;19509;43.862;26.176;2023-04-22T06:09:52;100696.16;;;11.86;81.36
33153;BME280;19509;43.862;26.176;2023-04-22T06:12:18;100694.88;;;11.88;80.70
33153;BME280;19509;43.862;26.176;2023-04-22T06:14:43;100702.47;;;12.04;78.85
33153;BME280;19509;43.862;26.176;2023-04-22T06:17:09;100701.31;;;12.50;78.21
33153;BME280;19509;43.862;26.176;2023-04-22T06:19:34;100696.06;;;12.81;76.50
33153;BME280;19509;43.862;26.176;2023-04-22T06:22:00;100696.63;;;13.08;73.99
33153;BME280;19509;43.862;26.176;2023-04-22T06:24:25;100700.34;;;13.07;74.83
33153;BME280;19509;43.862;26.176;2023-04-22T06:26:51;100704.44;;;13.53;75.76
33153;BME280;19509;43.862;26.176;2023-04-22T06:29:17;100707.28;;;13.58;71.85
33153;BME280;19509;43.862;26.176;2023-04-22T06:31:42;100706.84;;;13.91;71.00
33153;BME280;19509;43.862;26.176;2023-04-22T06:34:08;100707.84;;;14.50;67.28
33153;BME280;19509;43.862;26.176;2023-04-22T06:36:33;100710.81;;;15.07;67.72
33153;BME280;19509;43.862;26.176;2023-04-22T06:39:02;100710.00;;;15.19;63.21
33153;BME280;19509;43.862;26.176;2023-04-22T06:41:29;100706.66;;;15.28;62.97
33153;BME280;19509;43.862;26.176;2023-04-22T06:43:55;100713.25;;;15.56;62.28
33153;BME280;19509;43.862;26.176;2023-04-22T06:46:21;100711.34;;;15.45;60.71
33153;BME280;19509;43.862;26.176;2023-04-22T06:48:46;100718.50;;;15.22;59.53
33153;BME280;19509;43.862;26.176;2023-04-22T06:51:12;100719.53;;;15.21;55.91
33153;BME280;19509;43.862;26.176;2023-04-22T06:53:38;100719.41;;;15.28;57.16
33153;BME280;19509;43.862;26.176;2023-04-22T06:56:04;100720.31;;;15.57;58.89
33153;BME280;19509;43.862;26.176;2023-04-22T06:58:30;100719.38;;;15.92;55.32
33153;BME280;19509;43.862;26.176;2023-04-22T07:00:55;100716.88;;;16.02;52.86
33153;BME280;19509;43.862;26.176;2023-04-22T07:03:21;100721.69;;;15.71;54.93
33153;BME280;19509;43.862;26.176;2023-04-22T07:05:46;100721.00;;;16.04;56.39
33153;BME280;19509;43.862;26.176;2023-04-22T07:08:13;100717.97;;;16.18;56.59
33153;BME280;19509;43.862;26.176;2023-04-22T07:10:38;100730.31;;;15.80;53.84
33153;BME280;19509;43.862;26.176;2023-04-22T07:13:04;100726.78;;;15.68;53.62
33153;BME280;19509;43.862;26.176;2023-04-22T07:15:29;100720.06;;;15.99;53.42
33153;BME280;19509;43.862;26.176;2023-04-22T07:17:55;100728.44;;;16.26;54.43
33153;BME280;19509;43.862;26.176;2023-04-22T07:20:20;100729.53;;;16.42;53.67
33153;BME280;19509;43.862;26.176;2023-04-22T07:22:46;100736.38;;;15.47;54.97
33153;BME280;19509;43.862;26.176;2023-04-22T07:25:12;100733.88;;;15.45;52.61
33153;BME280;19509;43.862;26.176;2023-04-22T07:27:37;100741.34;;;15.14;52.00
33153;BME280;19509;43.862;26.176;2023-04-22T07:30:06;100743.47;;;15.36;55.60
33153;BME280;19509;43.862;26.176;2023-04-22T07:32:31;100744.28;;;15.25;54.26
33153;BME280;19509;43.862;26.176;2023-04-22T07:34:57;100748.66;;;15.26;56.35
33153;BME280;19509;43.862;26.176;2023-04-22T07:37:22;100751.72;;;15.29;56.18
33153;BME280;19509;43.862;26.176;2023-04-22T07:39:48;100754.88;;;15.38;55.56
33153;BME280;19509;43.862;26.176;2023-04-22T07:42:14;100758.63;;;15.49;56.30
33153;BME280;19509;43.862;26.176;2023-04-22T07:44:39;100751.44;;;15.54;58.51
33153;BME280;19509;43.862;26.176;2023-04-22T07:47:05;100755.09;;;15.48;55.06
33153;BME280;19509;43.862;26.176;2023-04-22T07:49:32;100762.88;;;15.45;57.89
33153;BME280;19509;43.862;26.176;2023-04-22T07:51:58;100764.22;;;15.42;59.75
33153;BME280;19509;43.862;26.176;2023-04-22T07:54:23;100763.25;;;15.36;55.03
33153;BME280;19509;43.862;26.176;2023-04-22T07:56:49;100765.03;;;15.31;55.47
33153;BME280;19509;43.862;26.176;2023-04-22T07:59:15;100763.75;;;15.10;56.62
33153;BME280;19509;43.862;26.176;2023-04-22T08:01:40;100782.94;;;14.97;58.41
33153;BME280;19509;43.862;26.176;2023-04-22T08:04:06;100774.84;;;15.08;56.54
33153;BME280;19509;43.862;26.176;2023-04-22T08:06:32;100768.88;;;15.58;54.38
33153;BME280;19509;43.862;26.176;2023-04-22T08:08:57;100768.03;;;16.39;51.61
33153;BME280;19509;43.862;26.176;2023-04-22T08:11:23;100767.16;;;16.50;53.73
33153;BME280;19509;43.862;26.176;2023-04-22T08:13:48;100771.28;;;16.52;52.21
33153;BME280;19509;43.862;26.176;2023-04-22T08:16:14;100776.53;;;16.59;51.17
33153;BME280;19509;43.862;26.176;2023-04-22T08:18:40;100759.22;;;16.77;50.30
33153;BME280;19509;43.862;26.176;2023-04-22T08:21:06;100767.66;;;17.14;52.50
33153;BME280;19509;43.862;26.176;2023-04-22T08:23:31;100766.47;;;17.05;51.03
33153;BME280;19509;43.862;26.176;2023-04-22T08:25:57;100772.72;;;17.06;52.86
33153;BME280;19509;43.862;26.176;2023-04-22T08:28:23;100774.00;;;17.20;52.32
33153;BME280;19509;43.862;26.176;2023-04-22T08:30:48;100774.53;;;16.83;50.68
33153;BME280;19509;43.862;26.176;2023-04-22T08:33:15;100769.72;;;17.24;53.78
33153;BME280;19509;43.862;26.176;2023-04-22T08:35:40;100771.72;;;16.95;50.42
33153;BME280;19509;43.862;26.176;2023-04-22T08:38:06;100766.97;;;17.02;52.72
33153;BME280;19509;43.862;26.176;2023-04-22T08:40:33;100780.59;;;16.73;55.05
33153;BME280;19509;43.862;26.176;2023-04-22T08:42:58;100780.13;;;17.10;52.54
33153;BME280;19509;43.862;26.176;2023-04-22T08:45:24;100773.78;;;17.05;52.49
33153;BME280;19509;43.862;26.176;2023-04-22T08:47:51;100775.72;;;17.43;52.60
33153;BME280;19509;43.862;26.176;2023-04-22T08:50:18;100769.94;;;17.39;52.65
33153;BME280;19509;43.862;26.176;2023-04-22T08:52:45;100774.19;;;17.52;48.80
33153;BME280;19509;43.862;26.176;2023-04-22T08:55:10;100772.59;;;17.17;47.29
33153;BME280;19509;43.862;26.176;2023-04-22T08:57:37;100779.56;;;16.46;53.21
33153;BME280;19509;43.862;26.176;2023-04-22T09:00:05;100772.41;;;16.56;51.65
33153;BME280;19509;43.862;26.176;2023-04-22T09:02:33;100774.41;;;16.61;49.36
33153;BME280;19509;43.862;26.176;2023-04-22T09:05:00;100772.25;;;16.92;51.27
33153;BME280;19509;43.862;26.176;2023-04-22T09:07:27;100768.69;;;17.47;50.68
33153;BME280;19509;43.862;26.176;2023-04-22T09:09:54;100779.50;;;17.81;49.68
33153;BME280;19509;43.862;26.176;2023-04-22T09:12:20;100782.53;;;17.84;43.28
33153;BME280;19509;43.862;26.176;2023-04-22T09:14:46;100777.84;;;17.41;43.96
33153;BME280;19509;43.862;26.176;2023-04-22T09:17:15;100775.41;;;17.22;43.52
33153;BME280;19509;43.862;26.176;2023-04-22T09:19:41;100775.44;;;17.44;46.46
33153;BME280;19509;43.862;26.176;2023-04-22T09:22:11;100781.50;;;17.30;43.09
33153;BME280;19509;43.862;26.176;2023-04-22T09:24:59;100772.72;;;17.44;46.83
33153;BME280;19509;43.862;26.176;2023-04-22T09:27:24;100771.31;;;17.42;40.81
33153;BME280;19509;43.862;26.176;2023-04-22T09:29:51;100777.97;;;17.51;44.51
33153;BME280;19509;43.862;26.176;2023-04-22T09:32:17;100773.06;;;17.31;42.39
33153;BME280;19509;43.862;26.176;2023-04-22T09:34:53;100774.81;;;17.37;41.64
33153;BME280;19509;43.862;26.176;2023-04-22T09:37:25;100770.88;;;17.89;44.69
33153;BME280;19509;43.862;26.176;2023-04-22T09:39:51;100766.63;;;17.76;40.26
33153;BME280;19509;43.862;26.176;2023-04-22T09:42:17;100767.47;;;17.38;40.45
33153;BME280;19509;43.862;26.176;2023-04-22T09:44:47;100775.84;;;17.53;42.77
33153;BME280;19509;43.862;26.176;2023-04-22T09:47:13;100780.72;;;17.73;44.22
33153;BME280;19509;43.862;26.176;2023-04-22T09:49:38;100775.09;;;17.80;42.25
33153;BME280;19509;43.862;26.176;2023-04-22T09:52:05;100776.56;;;17.87;42.54
33153;BME280;19509;43.862;26.176;2023-04-22T09:54:30;100773.31;;;17.46;44.15
33153;BME280;19509;43.862;26.176;2023-04-22T09:56:56;100770.09;;;17.71;44.97
33153;BME280;19509;43.862;26.176;2023-04-22T09:59:24;100767.72;;;17.58;43.85
33153;BME280;19509;43.862;26.176;2023-04-22T10:02:00;100762.91;;;17.43;43.82
33153;BME280;19509;43.862;26.176;2023-04-22T10:04:28;100765.00;;;17.58;44.18
33153;BME280;19509;43.862;26.176;2023-04-22T10:06:55;100759.16;;;17.66;47.72
33153;BME280;19509;43.862;26.176;2023-04-22T10:09:22;100756.22;;;17.73;48.46
33153;BME280;19509;43.862;26.176;2023-04-22T10:11:50;100752.16;;;17.54;40.59
33153;BME280;19509;43.862;26.176;2023-04-22T10:14:18;100750.91;;;17.61;43.27
33153;BME280;19509;43.862;26.176;2023-04-22T10:16:45;100748.78;;;17.85;48.26
33153;BME280;19509;43.862;26.176;2023-04-22T10:19:15;100747.59;;;17.59;46.40
33153;BME280;19509;43.862;26.176;2023-04-22T10:21:43;100754.75;;;17.65;50.06
33153;BME280;19509;43.862;26.176;2023-04-22T10:24:17;100742.84;;;18.15;44.91
33153;BME280;19509;43.862;26.176;2023-04-22T10:26:57;100740.16;;;17.93;45.81
33153;BME280;19509;43.862;26.176;2023-04-22T10:29:25;100738.16;;;18.38;46.97
33153;BME280;19509;43.862;26.176;2023-04-22T10:31:53;100742.16;;;18.03;46.34
33153;BME280;19509;43.862;26.176;2023-04-22T10:34:21;100736.31;;;16.90;47.21
33153;BME280;19509;43.862;26.176;2023-04-22T10:39:22;100732.47;;;17.24;45.25
33153;BME280;19509;43.862;26.176;2023-04-22T10:42:16;100733.88;;;17.71;43.88
33153;BME280;19509;43.862;26.176;2023-04-22T10:44:52;100723.50;;;18.17;50.74
33153;BME280;19509;43.862;26.176;2023-04-22T10:47:37;100738.88;;;17.79;47.37
33153;BME280;19509;43.862;26.176;2023-04-22T10:50:23;100727.00;;;18.12;43.94
33153;BME280;19509;43.862;26.176;2023-04-22T10:52:58;100724.34;;;18.50;50.04
33153;BME280;19509;43.862;26.176;2023-04-22T10:55:25;100721.22;;;19.00;47.82
33153;BME280;19509;43.862;26.176;2023-04-22T10:57:51;100724.25;;;18.34;46.10
33153;BME280;19509;43.862;26.176;2023-04-22T11:00:30;100720.75;;;18.44;47.20
33153;BME280;19509;43.862;26.176;2023-04-22T11:03:09;100719.09;;;18.38;50.61
33153;BME280;19509;43.862;26.176;2023-04-22T11:05:35;100725.31;;;17.62;47.20
33153;BME280;19509;43.862;26.176;2023-04-22T11:13:00;100721.94;;;18.21;48.27
33153;BME280;19509;43.862;26.176;2023-04-22T11:15:28;100727.25;;;18.38;48.21
33153;BME280;19509;43.862;26.176;2023-04-22T11:17:54;100729.69;;;18.34;48.28
33153;BME280;19509;43.862;26.176;2023-04-22T11:20:20;100728.34;;;18.10;47.04
33153;BME280;19509;43.862;26.176;2023-04-22T11:22:49;100729.91;;;18.01;44.53
33153;BME280;19509;43.862;26.176;2023-04-22T11:25:15;100728.81;;;18.02;47.17
33153;BME280;19509;43.862;26.176;2023-04-22T11:27:41;100726.50;;;18.15;49.10
33153;BME280;19509;43.862;26.176;2023-04-22T11:30:20;100722.84;;;18.32;44.04
33153;BME280;19509;43.862;26.176;2023-04-22T11:32:54;100722.28;;;18.30;44.86
33153;BME280;19509;43.862;26.176;2023-04-22T11:35:28;100720.94;;;18.05;48.52
33153;BME280;19509;43.862;26.176;2023-04-22T11:37:56;100727.16;;;18.01;49.03
33153;BME280;19509;43.862;26.176;2023-04-22T11:40:25;100720.56;;;17.96;47.94
33153;BME280;19509;43.862;26.176;2023-04-22T11:42:51;100718.69;;;18.56;47.47
33153;BME280;19509;43.862;26.176;2023-04-22T11:45:17;100718.00;;;18.39;42.71
33153;BME280;19509;43.862;26.176;2023-04-22T11:47:43;100716.09;;;18.39;45.24
33153;BME280;19509;43.862;26.176;2023-04-22T11:50:12;100718.16;;;18.00;47.89
33153;BME280;19509;43.862;26.176;2023-04-22T11:52:50;100711.34;;;17.98;46.61
33153;BME280;19509;43.862;26.176;2023-04-22T11:55:28;100713.84;;;18.31;45.71
33153;BME280;19509;43.862;26.176;2023-04-22T11:58:22;100706.59;;;18.42;42.78
33153;BME280;19509;43.862;26.176;2023-04-22T12:00:49;100715.88;;;17.87;42.75
33153;BME280;19509;43.862;26.176;2023-04-22T12:03:21;100718.94;;;17.95;40.63
33153;BME280;19509;43.862;26.176;2023-04-22T12:06:05;100707.91;;;18.34;42.33
33153;BME280;19509;43.862;26.176;2023-04-22T12:08:35;100710.69;;;18.72;39.30
33153;BME280;19509;43.862;26.176;2023-04-22T12:11:03;100703.22;;;18.62;43.62
33153;BME280;19509;43.862;26.176;2023-04-22T12:13:40;100704.94;;;18.41;40.02
33153;BME280;19509;43.862;26.176;2023-04-22T12:16:09;100701.22;;;18.52;43.41
33153;BME280;19509;43.862;26.176;2023-04-22T12:18:40;100706.94;;;18.83;43.69
33153;BME280;19509;43.862;26.176;2023-04-22T12:26:07;100689.16;;;18.75;44.32
33153;BME280;19509;43.862;26.176;2023-04-22T12:28:33;100692.56;;;18.93;45.20
33153;BME280;19509;43.862;26.176;2023-04-22T12:30:58;100689.22;;;18.85;47.84
33153;BME280;19509;43.862;26.176;2023-04-22T12:33:24;100696.25;;;18.76;45.43
33153;BME280;19509;43.862;26.176;2023-04-22T12:35:50;100697.44;;;18.26;42.54
33153;BME280;19509;43.862;26.176;2023-04-22T12:38:17;100703.78;;;18.32;41.14
33153;BME280;19509;43.862;26.176;2023-04-22T12:40:42;100690.84;;;18.49;47.22
33153;BME280;19509;43.862;26.176;2023-04-22T12:43:08;100686.34;;;18.65;44.41
33153;BME280;19509;43.862;26.176;2023-04-22T12:45:34;100687.56;;;18.20;41.11
33153;BME280;19509;43.862;26.176;2023-04-22T12:47:59;100682.88;;;18.42;41.01
33153;BME280;19509;43.862;26.176;2023-04-22T12:50:25;100681.91;;;18.27;41.42
33153;BME280;19509;43.862;26.176;2023-04-22T12:52:50;100682.78;;;18.32;42.53